Tobias Bolanos International Airport
MRPV : now visible

Airfield :











YOU CAN JOIN US ON...

 
LOGIN :

Register | Disclaimer

   EN    FR    IT 

 









Legend :    VFR   Marginal VFR   IFR   Intensive IFR   Very Intensive IFR
Visi :
Ceiling :
>= 8 km
>= 3000ft
5 to 8 km
1000 to 3000 ft
1500m to 5 km
500 to 1000 ft
800 to 1500m
200 to 500 ft
< 800m
< 200 ft
Symbols :   Thunderstorms  Fog  Heavy snow  Heavy precipitations  Wind > 20 kt






- Airport Elevation : 3287 ft
- IATA code : SYQ


MRPV - Tobias Bolanos International

CURRENT METAR :
  • 291400Z VRB01KT 9999 BKN020 21/18 A3009 NOSIG

EXPIRED METARs :
  • 291300Z 00000KT 9999 FEW010 BKN100 19/18 A3007 NOSIG
  • 291200Z 00000KT 9999 FEW010 BKN100 19/18 A3005 NOSIG

TAF MRPV
Valid from the 29 at 12:00 until the 30 at 12:00 UTC


291113Z 2912/3012 09006KT 9999 FEW025 BKN100 TX27/2918Z TN19/3010Z
BECMG 2914/2916 25010KT
TEMPO 2920/3012 3000 SHRA BR SCT010TCU BKN020
MHTG FIR / North America



MET'MAP, your aeronautical weather chart ! - Copyright ORBIFLY December 2007 - Disclaimer

ORBIFLY MET'MAP TEAM :

Programming & Development : Alexandra Zaïnal
Concept & original design : Baudouin d'Aumeries
Assistance for programming : Marc-Olivier Méhu
Technical & hardware support : Manuel Goepfert

Contact : metmap@orbifly.com




SOURCES & CREDITS :

   NOAA       Earth
Advisory